KTUL/TUL METAR and TAF weather

Enter ICAO airport designator
Station Type Date Time Source
KTUL METAR 2020/04/04 20:53 UTC NOAA

KTUL 042053Z 02008KT 6SM -DZ BR BKN009 OVC013 05/03 A3009 RMK AO2 DZB23 SLP193 P0000 60000 T00500028 57022


Station Type Date Time Source
KTUL Decoded METAR 2020/04/04 20:53 UTC NOAA

TULSA INTERNATIONAL AIRPORT, OK, United States (KTUL) 36-12N 95-53W 207M
Apr 04, 2020 - 04:53 PM EDT / 2020.04.04 2053 UTC
Wind: from the NNE (020 degrees) at 9 MPH (8 KT):0
Visibility: 6 mile(s):0
Sky conditions: overcast
Weather: light drizzle; mist
Precipitation last hour: A trace
Temperature: 41.0 F (5.0 C)
Dew Point: 37.0 F (2.8 C)
Relative Humidity: 85%
Pressure (altimeter): 30.09 in. Hg (1018 hPa)
Pressure tendency: 0.06 inches (2.2 hPa) lower than three hours ago
ob: KTUL 042053Z 02008KT 6SM -DZ BR BKN009 OVC013 05/03 A3009 RMK AO2 DZB23 SLP193 P0000 60000 T00500028 57022
cycle: 21

Station Type Date Time Source
KTUL TAF 2020/04/04 18:22 UTC NOAA

TAF KTUL 041720Z 0418/0518 36011KT P6SM OVC008
FM042000 03006KT P6SM OVC012
FM050100 04003KT P6SM OVC020
FM050900 VRB04KT P6SM OVC012

Example: see airport list